Crosby Ram — WDH3316 — position and weather

sailwx.info

Track history (hours):
 
Tides and Currents Weather Stations Pressure Air Temp Water Temp Dewpoint Dewpoint Depression Visibility Wind Speed Wind Dir Waves Ship Positions

Crosby Ram

Owner: Crosby Marine Transportation, LLC, Galliano, LA. More information available from US FCC via Universal Licensing System and Coast Guard Vessel Documentation Center.

Last reported at 2017-Sep-21 18:17 UTC. Time now 2017-Oct-17 05:43 UTC.
Position N 29°50' W 091°60'.
Warning: this ship's position is 25 days out of date.

Length 29 m; draft 3.5 m.

MMSI: 367396520.

Date/timePositionNaut miles runAvg speedWind from/ knotsBaromVisibWave heightAir tempDewpointWater temp
2017-Sep-21 18:17N 29°50' W 091°60'2 6.3
2017-Sep-21 18:00N 29°49' W 092°02'3 6.1
2017-Sep-21 17:30N 29°48' W 092°05'3 5.7
2017-Sep-21 17:00N 29°47' W 092°08'3 5.6
2017-Sep-21 16:24N 29°47' W 092°12'2 5.4
2017-Sep-21 16:00N 29°48' W 092°14'3 5.8
2017-Sep-21 15:30N 29°49' W 092°17'41 5.5
2017-Sep-21 08:02N 29°56' W 093°04'0 5.8
2017-Sep-21 08:00N 29°56' W 093°04'3 5.1
2017-Sep-21 07:30N 29°56' W 093°07'3 5.2
2017-Sep-21 07:00N 29°56' W 093°10'3 5.3
2017-Sep-21 06:30N 29°58' W 093°12'2 4.4
2017-Sep-21 06:00N 30°00' W 093°14'2 4.4
2017-Sep-21 05:30N 30°02' W 093°15'2 4.6
2017-Sep-21 05:00N 30°04' W 093°16'2 5.0
2017-Sep-21 04:30N 30°06' W 093°18'1 1.5
2017-Sep-21 04:00N 30°06' W 093°19'3 6.0
2017-Sep-21 03:30N 30°04' W 093°21'3 6.4
2017-Sep-21 03:00N 30°04' W 093°25'3 6.4
2017-Sep-21 02:30N 30°04' W 093°29'3 5.8
2017-Sep-21 02:00N 30°04' W 093°32'3 5.9
2017-Sep-21 01:29N 30°04' W 093°36'3 6.6
2017-Sep-21 01:00N 30°04' W 093°39'  
Track history (hours):
 
Tides and Currents Weather Stations Pressure Air Temp Water Temp Dewpoint Dewpoint Depression Visibility Wind Speed Wind Dir Waves Ship Positions

Crosby Ram

Owner: Crosby Marine Transportation, LLC, Galliano, LA. More information available from US FCC via Universal Licensing System and Coast Guard Vessel Documentation Center.

Last reported at 2017-Sep-21 18:17 UTC. Time now 2017-Oct-17 05:43 UTC.
Position N 29°50' W 091°60'.
Warning: this ship's position is 25 days out of date.

Length 29 m; draft 3.5 m.

MMSI: 367396520.

Date/timePositionNaut miles runAvg speedWind from/ knotsBaromVisibWave heightAir tempDewpointWater temp
2017-Sep-21 18:17N 29°50' W 091°60'2 6.3
2017-Sep-21 18:00N 29°49' W 092°02'3 6.1
2017-Sep-21 17:30N 29°48' W 092°05'3 5.7
2017-Sep-21 17:00N 29°47' W 092°08'3 5.6
2017-Sep-21 16:24N 29°47' W 092°12'2 5.4
2017-Sep-21 16:00N 29°48' W 092°14'3 5.8
2017-Sep-21 15:30N 29°49' W 092°17'41 5.5
2017-Sep-21 08:02N 29°56' W 093°04'0 5.8
2017-Sep-21 08:00N 29°56' W 093°04'3 5.1
2017-Sep-21 07:30N 29°56' W 093°07'3 5.2
2017-Sep-21 07:00N 29°56' W 093°10'3 5.3
2017-Sep-21 06:30N 29°58' W 093°12'2 4.4
2017-Sep-21 06:00N 30°00' W 093°14'2 4.4
2017-Sep-21 05:30N 30°02' W 093°15'2 4.6
2017-Sep-21 05:00N 30°04' W 093°16'2 5.0
2017-Sep-21 04:30N 30°06' W 093°18'1 1.5
2017-Sep-21 04:00N 30°06' W 093°19'3 6.0
2017-Sep-21 03:30N 30°04' W 093°21'3 6.4
2017-Sep-21 03:00N 30°04' W 093°25'3 6.4
2017-Sep-21 02:30N 30°04' W 093°29'3 5.8
2017-Sep-21 02:00N 30°04' W 093°32'3 5.9
2017-Sep-21 01:29N 30°04' W 093°36'3 6.6
2017-Sep-21 01:00N 30°04' W 093°39'  

Dump ship's entire track history